Thursday, January 17, 2019, 6:01 AM EST
Back to Local

KHFD, Hartford-brainard Airport

Location: Hartford, CT, United States Lat: 41.733
Local Time: 6:01 AM EST (11:01 GMT) Lon: -72.65
Time Zone: US/Eastern Elev: 19 ft

Show me the last for .
Show Decoded

2019-01-17 04:53 METAR KHFD 170953Z AUTO 35012G16KT 10SM CLR M06/M16 A3033 RMK AO2 SLP270
                 T10561156 =
2019-01-17 03:53 METAR KHFD 170853Z AUTO 34010G17KT 10SM CLR M04/M15 A3032 RMK AO2 SLP267
                 T10441150 51030 =
2019-01-17 02:53 METAR KHFD 170753Z AUTO 34014G19KT 10SM CLR M04/M12 A3029 RMK AO2 SLP258
                 T10391122 =
2019-01-17 01:53 METAR KHFD 170653Z AUTO 31005KT 10SM CLR M03/M12 A3027 RMK AO2 SLP250 T10331122
                 =
2019-01-17 00:53 METAR KHFD 170553Z AUTO 32007G15KT 10SM CLR M02/M12 A3023 RMK AO2 SLP237
                 T10221122 10033 21022 51026 =
2019-01-16 23:53 METAR KHFD 170453Z 30009KT 10SM CLR M02/M12 A3022 RMK AO2 SLP234 T10171122
                 400331050 =
2019-01-16 22:53 METAR KHFD 170353Z 33011G20KT 10SM CLR M01/M11 A3019 RMK AO2 SLP223 T10061111 =
2019-01-16 21:53 METAR KHFD 170253Z 31009KT 10SM CLR 01/M10 A3015 RMK AO2 SLP211 T00061100 53038
                 =
2019-01-16 20:53 METAR KHFD 170153Z 33008G17KT 10SM FEW038 FEW060 02/M07 A3011 RMK AO2 SLP196
                 T00221067 =
2019-01-16 19:53 METAR KHFD 170053Z 30006KT 10SM OVC060 03/M07 A3007 RMK AO2 SLP184 T00331072 =
2019-01-16 18:53 METAR KHFD 162353Z 23004KT 10SM OVC060 03/M07 A3004 RMK AO2 SLP173 T00331067
                 10033 20022 53017 =
2019-01-16 17:53 METAR KHFD 162253Z 21004KT 10SM OVC060 03/M06 A3002 RMK AO2 SLP167 T00281061 =
2019-01-16 16:53 METAR KHFD 162153Z 20004KT 10SM OVC060 03/M06 A3000 RMK AO2 SLP159 T00281061 =
2019-01-16 15:53 METAR KHFD 162053Z 24006KT 10SM BKN060 03/M06 A2999 RMK AO2 SLP157 T00331061
                 53005 =
2019-01-16 14:53 METAR KHFD 161953Z 27007KT 10SM SCT049 03/M06 A2999 RMK AO2 SLP154 T00331061 =
2019-01-16 13:53 METAR KHFD 161853Z 27005KT 10SM OVC050 03/M06 A2998 RMK AO2 SLP152 T00331056 =
2019-01-16 12:53 METAR KHFD 161753Z 21007KT 10SM OVC045 02/M05 A2998 RMK AO2 SLP152 T00221050
                 10028 21050 58018 =
2019-01-16 11:53 METAR KHFD 161653Z 21006KT 10SM OVC041 01/M06 A3000 RMK AO2 SLP157 T00111056 =
2019-01-16 10:53 METAR KHFD 161553Z VRB04KT 9SM OVC035 00/M06 A3003 RMK AO2 SLP167 T00001056 =
2019-01-16 09:53 METAR KHFD 161453Z 22004KT 10SM OVC038 M01/M06 A3003 RMK AO2 SLP170 T10061061
                 53004 =
2019-01-16 08:53 METAR KHFD 161353Z VRB05KT 9SM BKN034 M01/M07 A3002 RMK AO2 SLP164 T10111067 =
2019-01-16 07:53 METAR KHFD 161253Z 16005KT 8SM CLR M04/M07 A3002 RMK AO2 SLP165 T10391067 =
2019-01-16 06:53 METAR KHFD 161153Z 17004KT 10SM CLR M04/M07 A3002 RMK AO2 SLP166 T10441072 11039
                 21050 55003 =

Support USWX by starting your Amazon purchase here.